Time;durP1;ratioP1;P1;durP2;ratioP2;P2;SDS_P1;SDS_P2;PMS_P1;PMS_P2;Temp;Humidity;BMP_temperature;BMP_pressure;BME280_temperature;BME280_humidity;BME280_pressure;Samples;Min_cycle;Max_cycle;Signal;HPM_P1;HPM_P2
2023/05/17 00:00:12;;;;;;;0.38;0.38;;;8.90;99.90;;;;;;7404347;19;19925;-79
2023/05/17 00:02:41;;;;;;;0.10;0.10;;;8.90;99.90;;;;;;7404832;19;19942;-79
2023/05/17 00:05:13;;;;;;;0.05;0.05;;;9.00;99.90;;;;;;7403066;19;19918;-79
2023/05/17 00:07:42;;;;;;;0.00;0.00;;;8.90;99.90;;;;;;7409798;19;19935;-81
2023/05/17 00:10:11;;;;;;;0.00;0.00;;;8.90;99.90;;;;;;7404382;19;20239;-77
2023/05/17 00:12:41;;;;;;;0.00;0.00;;;9.00;99.90;;;;;;7404332;19;19933;-79
2023/05/17 00:15:11;;;;;;;0.00;0.00;;;8.90;99.90;;;;;;7404104;19;19922;-77
2023/05/17 00:17:40;;;;;;;1.10;0.40;;;8.90;99.90;;;;;;7401924;19;19918;-78
2023/05/17 00:20:10;;;;;;;0.00;0.00;;;8.80;99.90;;;;;;7403691;19;20613;-78
2023/05/17 00:22:44;;;;;;;4.65;0.43;;;8.80;99.90;;;;;;7408456;19;19989;-79
2023/05/17 00:25:13;;;;;;;0.00;0.00;;;8.90;99.90;;;;;;7408533;19;19966;-79
2023/05/17 00:27:42;;;;;;;0.00;0.00;;;8.90;99.90;;;;;;7413126;19;19940;-77
2023/05/17 00:30:12;;;;;;;0.00;0.00;;;9.00;99.90;;;;;;7409652;19;19982;-78
2023/05/17 00:32:41;;;;;;;1.17;1.08;;;8.90;99.90;;;;;;7406596;19;19950;-77
2023/05/17 00:35:10;;;;;;;0.00;0.00;;;8.80;99.90;;;;;;7405994;19;19974;-78
2023/05/17 00:37:46;;;;;;;0.38;0.38;;;8.90;99.90;;;;;;7404919;19;19929;-79
2023/05/17 00:40:16;;;;;;;0.13;0.13;;;8.80;99.90;;;;;;7404362;19;19998;-77
2023/05/17 00:42:45;;;;;;;0.00;0.00;;;8.80;99.90;;;;;;7406035;19;20402;-77
2023/05/17 00:45:14;;;;;;;0.00;0.00;;;8.60;99.90;;;;;;7403808;19;19938;-78
2023/05/17 00:47:44;;;;;;;0.00;0.00;;;8.70;99.90;;;;;;7402990;19;19966;-79
2023/05/17 00:50:13;;;;;;;0.00;0.00;;;8.90;99.90;;;;;;7403285;19;19943;-79
2023/05/17 00:52:45;;;;;;;0.00;0.00;;;8.80;99.90;;;;;;7403160;19;19987;-80
2023/05/17 00:55:14;;;;;;;0.10;0.10;;;8.80;99.90;;;;;;7403401;19;20280;-79
2023/05/17 00:57:43;;;;;;;0.00;0.00;;;8.90;99.90;;;;;;7402502;19;19919;-79
2023/05/17 01:00:13;;;;;;;0.00;0.00;;;8.70;99.90;;;;;;7402725;19;19914;-79
2023/05/17 01:02:43;;;;;;;0.00;0.00;;;8.90;99.90;;;;;;7403250;19;19971;-79
2023/05/17 01:05:12;;;;;;;7.03;1.27;;;8.80;99.90;;;;;;7401622;19;19970;-79
2023/05/17 01:07:41;;;;;;;0.00;0.00;;;8.70;99.90;;;;;;7403214;19;20630;-79
2023/05/17 01:10:13;;;;;;;0.00;0.00;;;8.80;99.90;;;;;;7402370;19;19936;-80
2023/05/17 01:12:52;;;;;;;0.00;0.00;;;9.00;99.90;;;;;;7406311;19;19926;-79
2023/05/17 01:15:27;;;;;;;0.00;0.00;;;8.80;99.90;;;;;;7404597;19;19915;-80
2023/05/17 01:18:17;;;;;;;0.00;0.00;;;8.80;99.90;;;;;;7400428;19;20368;-80
2023/05/17 01:20:47;;;;;;;0.00;0.00;;;8.70;99.90;;;;;;7402731;19;19911;-80
2023/05/17 01:23:31;;;;;;;0.00;0.00;;;8.60;99.90;;;;;;7403033;19;19974;-80
2023/05/17 01:26:12;;;;;;;0.00;0.00;;;8.60;99.90;;;;;;7402038;19;20022;-79
2023/05/17 01:28:46;;;;;;;0.00;0.00;;;8.60;99.90;;;;;;7403451;19;20353;-79
2023/05/17 01:31:16;;;;;;;0.00;0.00;;;8.50;99.90;;;;;;7403169;19;20010;-78
2023/05/17 01:33:46;;;;;;;1.17;0.32;;;8.50;99.90;;;;;;7402227;19;19987;-79
2023/05/17 01:36:14;;;;;;;0.00;0.00;;;8.60;99.90;;;;;;7402845;19;19918;-80
2023/05/17 01:38:44;;;;;;;0.00;0.00;;;8.50;99.90;;;;;;7402224;19;19919;-79
2023/05/17 01:41:19;;;;;;;0.00;0.00;;;8.00;99.90;;;;;;7402180;19;20344;-79
2023/05/17 01:43:57;;;;;;;0.00;0.00;;;8.40;99.90;;;;;;7402208;19;19918;-80
2023/05/17 01:46:29;;;;;;;0.00;0.00;;;8.30;99.90;;;;;;7401554;19;20025;-79
2023/05/17 01:49:10;;;;;;;0.00;0.00;;;8.30;99.90;;;;;;7404246;19;19978;-79
2023/05/17 01:51:49;;;;;;;0.00;0.00;;;8.30;99.90;;;;;;7401576;19;20253;-79
2023/05/17 01:54:24;;;;;;;0.35;0.35;;;8.20;99.90;;;;;;7402110;19;19919;-79
2023/05/17 01:56:58;;;;;;;0.00;0.00;;;8.40;99.90;;;;;;7400522;19;19914;-78
2023/05/17 01:59:31;;;;;;;0.00;0.00;;;8.40;99.90;;;;;;7400988;19;19924;-78
2023/05/17 02:02:07;;;;;;;0.00;0.00;;;8.50;99.90;;;;;;7401468;19;20511;-77
2023/05/17 02:04:37;;;;;;;0.20;0.20;;;8.40;99.90;;;;;;7399277;19;19946;-78
2023/05/17 02:07:06;;;;;;;0.00;0.00;;;8.30;99.90;;;;;;7400708;19;20010;-78
2023/05/17 02:09:35;;;;;;;0.00;0.00;;;8.30;99.90;;;;;;7401036;19;20532;-80
2023/05/17 02:12:04;;;;;;;0.00;0.00;;;8.50;99.90;;;;;;7400916;19;19942;-78
2023/05/17 02:14:35;;;;;;;0.00;0.00;;;8.40;99.90;;;;;;7400582;19;19914;-79
2023/05/17 02:17:05;;;;;;;0.00;0.00;;;8.70;99.90;;;;;;7399621;19;20273;-79
2023/05/17 02:19:34;;;;;;;0.00;0.00;;;8.50;99.90;;;;;;7401073;19;19933;-79
2023/05/17 02:22:03;;;;;;;4.97;0.32;;;8.40;99.90;;;;;;7401554;19;20366;-78
2023/05/17 02:24:32;;;;;;;0.00;0.00;;;8.60;99.90;;;;;;7401350;19;19966;-79
2023/05/17 02:27:02;;;;;;;0.00;0.00;;;8.60;99.90;;;;;;7403786;19;19919;-80
2023/05/17 02:29:31;;;;;;;0.00;0.00;;;8.50;99.90;;;;;;7405052;19;19982;-80
2023/05/17 02:32:02;;;;;;;0.00;0.00;;;8.50;99.90;;;;;;7407586;19;19923;-79
2023/05/17 02:34:31;;;;;;;0.88;0.65;;;8.40;99.90;;;;;;7408087;19;19914;-78
2023/05/17 02:37:00;;;;;;;0.00;0.00;;;8.30;99.90;;;;;;7406199;19;19939;-79
2023/05/17 02:39:29;;;;;;;0.00;0.00;;;8.40;99.90;;;;;;7408530;19;20293;-79
2023/05/17 02:41:59;;;;;;;0.00;0.00;;;8.40;99.90;;;;;;7407265;19;20049;-78
2023/05/17 02:44:28;;;;;;;0.00;0.00;;;8.30;99.90;;;;;;7407522;19;20257;-79
2023/05/17 02:46:57;;;;;;;0.00;0.00;;;8.50;99.90;;;;;;7408428;19;20260;-80
2023/05/17 02:49:29;;;;;;;2.83;1.65;;;8.40;99.90;;;;;;7408130;19;20335;-79
2023/05/17 02:51:59;;;;;;;0.00;0.00;;;8.40;99.90;;;;;;7409633;19;19923;-79
2023/05/17 02:54:28;;;;;;;0.00;0.00;;;8.40;99.90;;;;;;7408892;19;19938;-80
2023/05/17 02:56:57;;;;;;;0.00;0.00;;;8.40;99.90;;;;;;7407594;19;19986;-80
2023/05/17 02:59:26;;;;;;;0.00;0.00;;;8.40;99.90;;;;;;7405387;19;19939;-78
2023/05/17 03:01:55;;;;;;;0.63;0.63;;;8.40;99.90;;;;;;7407699;19;19924;-79
2023/05/17 03:04:24;;;;;;;0.00;0.00;;;8.30;99.90;;;;;;7408865;19;19919;-78
2023/05/17 03:06:55;;;;;;;0.00;0.00;;;8.40;99.90;;;;;;7406496;19;19914;-78
2023/05/17 03:09:25;;;;;;;0.00;0.00;;;8.40;99.90;;;;;;7405894;19;19942;-78
2023/05/17 03:11:54;;;;;;;0.00;0.00;;;8.40;99.90;;;;;;7405799;19;19925;-79
2023/05/17 03:14:23;;;;;;;0.00;0.00;;;8.50;99.90;;;;;;7409405;19;20336;-80
2023/05/17 03:16:52;;;;;;;0.00;0.00;;;8.60;99.90;;;;;;7405068;19;20325;-78
2023/05/17 03:19:21;;;;;;;0.00;0.00;;;8.50;99.90;;;;;;7406489;19;19918;-78
2023/05/17 03:21:50;;;;;;;0.00;0.00;;;8.50;99.90;;;;;;7406224;19;20241;-79
2023/05/17 03:24:21;;;;;;;0.00;0.00;;;8.40;99.90;;;;;;7405793;19;19935;-79
2023/05/17 03:26:50;;;;;;;0.00;0.00;;;8.40;99.90;;;;;;7408760;19;19926;-78
2023/05/17 03:29:19;;;;;;;0.00;0.00;;;8.40;99.90;;;;;;7404995;19;19982;-78
2023/05/17 03:31:48;;;;;;;0.00;0.00;;;8.40;99.90;;;;;;7409423;19;19918;-77
2023/05/17 03:34:17;;;;;;;0.00;0.00;;;8.30;99.90;;;;;;7405961;19;19974;-78
2023/05/17 03:36:46;;;;;;;0.00;0.00;;;8.30;99.90;;;;;;7407380;19;20066;-78
2023/05/17 03:39:15;;;;;;;0.73;0.73;;;8.20;99.90;;;;;;7410605;19;19948;-78
2023/05/17 03:41:47;;;;;;;0.00;0.00;;;8.10;99.90;;;;;;7414081;19;20346;-77
2023/05/17 03:44:16;;;;;;;0.00;0.00;;;8.20;99.90;;;;;;7409075;19;19923;-78
2023/05/17 03:46:45;;;;;;;0.00;0.00;;;8.20;99.90;;;;;;7405615;19;19923;-78
2023/05/17 03:49:14;;;;;;;0.00;0.00;;;8.30;99.90;;;;;;7405323;19;19919;-80
2023/05/17 03:51:44;;;;;;;0.00;0.00;;;8.20;99.90;;;;;;7408903;19;19922;-79
2023/05/17 03:54:13;;;;;;;0.00;0.00;;;8.30;99.90;;;;;;7404853;19;19919;-79
2023/05/17 03:56:45;;;;;;;0.00;0.00;;;8.40;99.90;;;;;;7407292;19;20317;-79
2023/05/17 03:59:17;;;;;;;1.77;1.55;;;8.30;99.90;;;;;;7404221;19;19931;-79
2023/05/17 04:01:47;;;;;;;0.00;0.00;;;8.30;99.90;;;;;;7405759;19;19926;-79
2023/05/17 04:04:15;;;;;;;0.00;0.00;;;8.40;99.90;;;;;;7406862;19;19957;-80
2023/05/17 04:06:44;;;;;;;0.10;0.10;;;8.60;99.90;;;;;;7405281;19;20364;-80
2023/05/17 04:09:14;;;;;;;0.00;0.00;;;8.50;99.90;;;;;;7406964;19;19930;-80
2023/05/17 04:11:43;;;;;;;0.00;0.00;;;8.50;99.90;;;;;;7407590;19;19929;-79
2023/05/17 04:14:12;;;;;;;0.00;0.00;;;8.40;99.90;;;;;;7406280;19;20647;-80
2023/05/17 04:16:43;;;;;;;0.00;0.00;;;8.50;99.90;;;;;;7402696;19;19987;-78
2023/05/17 04:19:12;;;;;;;0.00;0.00;;;8.60;99.90;;;;;;7399324;19;19919;-80
2023/05/17 04:21:41;;;;;;;0.00;0.00;;;8.60;99.90;;;;;;7405009;19;19935;-79
2023/05/17 04:24:10;;;;;;;0.00;0.00;;;8.40;99.90;;;;;;7403523;19;19922;-77
2023/05/17 04:26:39;;;;;;;0.00;0.00;;;8.50;99.90;;;;;;7405004;19;19978;-78
2023/05/17 04:29:08;;;;;;;0.05;0.05;;;8.60;99.90;;;;;;7403211;19;19923;-79
2023/05/17 04:31:45;;;;;;;0.00;0.00;;;8.40;99.90;;;;;;7405768;19;19930;-78
2023/05/17 04:34:15;;;;;;;0.10;0.10;;;8.50;99.90;;;;;;7404151;19;19918;-79
2023/05/17 04:36:44;;;;;;;0.00;0.00;;;8.50;99.90;;;;;;7401082;19;20290;-79
2023/05/17 04:39:13;;;;;;;0.08;0.08;;;8.60;99.90;;;;;;7405442;19;19922;-78
2023/05/17 04:41:42;;;;;;;0.00;0.00;;;8.70;99.90;;;;;;7403558;19;19922;-78
2023/05/17 04:44:11;;;;;;;0.15;0.15;;;8.70;99.90;;;;;;7406031;19;19927;-77
2023/05/17 04:46:40;;;;;;;0.52;0.52;;;8.60;99.90;;;;;;7403055;19;20337;-77
2023/05/17 04:49:13;;;;;;;0.00;0.00;;;8.60;99.90;;;;;;7402849;19;20475;-78
2023/05/17 04:51:42;;;;;;;0.00;0.00;;;8.50;99.90;;;;;;7400354;19;20682;-78
2023/05/17 04:54:11;;;;;;;0.00;0.00;;;8.70;99.90;;;;;;7403416;19;19970;-78
2023/05/17 04:56:40;;;;;;;0.00;0.00;;;8.60;99.90;;;;;;7406883;19;19919;-78
2023/05/17 04:59:10;;;;;;;0.00;0.00;;;8.70;99.90;;;;;;7400717;19;19935;-78
2023/05/17 05:01:39;;;;;;;0.00;0.00;;;8.70;99.90;;;;;;7403398;19;19924;-79
2023/05/17 05:04:08;;;;;;;0.00;0.00;;;8.50;99.90;;;;;;7403121;19;19947;-78
2023/05/17 05:06:40;;;;;;;0.00;0.00;;;8.60;99.90;;;;;;7403182;19;19921;-77
2023/05/17 05:09:09;;;;;;;0.75;0.75;;;8.70;99.90;;;;;;7407587;19;20524;-79
2023/05/17 05:11:38;;;;;;;0.00;0.00;;;8.50;99.90;;;;;;7402621;19;20341;-78
2023/05/17 05:14:07;;;;;;;0.00;0.00;;;8.50;99.90;;;;;;7402003;19;19940;-79
2023/05/17 05:16:36;;;;;;;0.00;0.00;;;8.70;99.90;;;;;;7402558;19;20034;-79
2023/05/17 05:19:05;;;;;;;0.00;0.00;;;8.50;99.90;;;;;;7400507;19;19982;-78
2023/05/17 05:21:34;;;;;;;0.00;0.00;;;8.60;99.90;;;;;;7402402;19;19939;-80
2023/05/17 05:24:06;;;;;;;0.00;0.00;;;8.60;99.90;;;;;;7405436;19;19931;-79
2023/05/17 05:26:35;;;;;;;0.00;0.00;;;8.60;99.90;;;;;;7403832;19;19933;-78
2023/05/17 05:29:04;;;;;;;0.00;0.00;;;8.70;99.90;;;;;;7403325;19;19951;-79
2023/05/17 05:31:33;;;;;;;0.00;0.00;;;8.60;99.90;;;;;;7401081;19;19918;-79
2023/05/17 05:34:02;;;;;;;0.00;0.00;;;8.60;99.90;;;;;;7402680;19;19918;-79
2023/05/17 05:36:31;;;;;;;0.00;0.00;;;8.60;99.90;;;;;;7402395;19;19929;-79
2023/05/17 05:39:00;;;;;;;0.00;0.00;;;8.60;99.90;;;;;;7400310;19;19907;-76
2023/05/17 05:41:32;;;;;;;0.00;0.00;;;8.60;99.90;;;;;;7402247;19;20391;-79
2023/05/17 05:44:01;;;;;;;0.00;0.00;;;8.50;99.90;;;;;;7402644;19;19990;-79
2023/05/17 05:46:30;;;;;;;0.00;0.00;;;8.60;99.90;;;;;;7404135;19;19922;-78
2023/05/17 05:48:59;;;;;;;0.00;0.00;;;8.60;99.90;;;;;;7402472;19;19971;-77
2023/05/17 05:51:28;;;;;;;0.00;0.00;;;8.50;99.90;;;;;;7404984;19;20336;-80
2023/05/17 05:53:57;;;;;;;0.00;0.00;;;8.60;99.90;;;;;;7402131;19;19966;-80
2023/05/17 05:56:27;;;;;;;0.28;0.28;;;8.60;99.90;;;;;;7401720;19;20335;-80
2023/05/17 05:58:59;;;;;;;0.20;0.20;;;8.70;99.90;;;;;;7399878;19;19914;-80
2023/05/17 06:01:28;;;;;;;0.00;0.00;;;8.50;99.90;;;;;;7405108;19;19922;-79
2023/05/17 06:03:57;;;;;;;0.00;0.00;;;8.60;99.90;;;;;;7402149;19;19939;-79
2023/05/17 06:06:26;;;;;;;0.00;0.00;;;8.50;99.90;;;;;;7401822;19;19990;-80
2023/05/17 06:08:55;;;;;;;3.30;1.17;;;8.50;99.90;;;;;;7401545;19;20274;-78
2023/05/17 06:11:25;;;;;;;0.00;0.00;;;8.40;99.90;;;;;;7403408;19;19931;-81
2023/05/17 06:14:06;;;;;;;0.00;0.00;;;8.40;99.90;;;;;;7404707;19;20344;-83
2023/05/17 06:16:40;;;;;;;0.00;0.00;;;8.80;99.90;;;;;;7402299;19;19914;-83
2023/05/17 06:19:25;;;;;;;0.00;0.00;;;8.80;99.90;;;;;;7405561;19;19923;-80
2023/05/17 06:21:55;;;;;;;0.47;0.45;;;8.70;99.90;;;;;;7407368;19;19969;-79
2023/05/17 06:24:24;;;;;;;0.00;0.00;;;8.70;99.90;;;;;;7408095;19;21886;-78
2023/05/17 06:26:53;;;;;;;0.00;0.00;;;8.70;99.90;;;;;;7423475;19;19954;-79
2023/05/17 06:29:25;;;;;;;0.52;0.52;;;8.70;99.90;;;;;;7405764;19;20266;-78
2023/05/17 06:31:55;;;;;;;0.30;0.30;;;8.80;99.90;;;;;;7405223;19;19988;-78
2023/05/17 06:34:24;;;;;;;0.00;0.00;;;8.80;99.90;;;;;;7400376;19;19914;-78
2023/05/17 06:36:54;;;;;;;0.00;0.00;;;8.70;99.90;;;;;;7401526;19;19914;-82
2023/05/17 06:39:23;;;;;;;0.00;0.00;;;8.60;99.90;;;;;;7403815;19;19982;-79
2023/05/17 06:41:52;;;;;;;0.47;0.47;;;8.70;99.90;;;;;;7406315;19;19980;-80
2023/05/17 06:44:24;;;;;;;0.00;0.00;;;8.70;99.90;;;;;;7402555;19;19917;-80
2023/05/17 06:46:55;;;;;;;0.00;0.00;;;8.60;99.90;;;;;;7403101;19;19942;-80
2023/05/17 06:49:24;;;;;;;0.00;0.00;;;9.00;99.90;;;;;;7408107;19;19910;-79
2023/05/17 06:51:54;;;;;;;0.00;0.00;;;8.90;99.90;;;;;;7408580;19;20013;-78
2023/05/17 06:54:24;;;;;;;0.08;0.08;;;9.00;99.90;;;;;;7403495;19;19925;-81
2023/05/17 06:57:02;;;;;;;0.05;0.05;;;9.00;99.90;;;;;;7404096;19;19947;-81
2023/05/17 06:59:34;;;;;;;0.00;0.00;;;9.00;99.90;;;;;;7400011;19;19914;-80
2023/05/17 07:02:03;;;;;;;0.00;0.00;;;9.10;99.90;;;;;;7399547;19;20395;-79
2023/05/17 07:04:33;;;;;;;0.00;0.00;;;9.20;99.90;;;;;;7399286;19;19923;-79
2023/05/17 07:07:02;;;;;;;0.10;0.10;;;9.10;99.90;;;;;;7403147;19;19915;-79
2023/05/17 07:09:31;;;;;;;0.00;0.00;;;9.20;99.90;;;;;;7399389;19;19967;-77
2023/05/17 07:12:00;;;;;;;0.05;0.05;;;9.20;99.90;;;;;;7400285;19;19982;-78
2023/05/17 07:14:29;;;;;;;0.00;0.00;;;9.20;99.90;;;;;;7402440;19;19971;-79
2023/05/17 07:17:01;;;;;;;0.00;0.00;;;9.10;99.90;;;;;;7405746;19;20510;-80
2023/05/17 07:19:30;;;;;;;1.65;1.55;;;9.20;99.90;;;;;;7403963;19;19929;-78
2023/05/17 07:21:59;;;;;;;0.00;0.00;;;9.30;99.90;;;;;;7410541;19;19926;-78
2023/05/17 07:24:28;;;;;;;0.00;0.00;;;9.30;99.90;;;;;;7407039;19;20376;-79
2023/05/17 07:26:57;;;;;;;0.00;0.00;;;9.50;99.90;;;;;;7403550;19;19923;-79
2023/05/17 07:29:26;;;;;;;0.10;0.10;;;9.50;99.90;;;;;;7404695;19;19921;-78
2023/05/17 07:31:55;;;;;;;0.00;0.00;;;8.10;99.90;;;;;;7408188;19;19929;-78
2023/05/17 07:34:27;;;;;;;0.00;0.00;;;9.40;99.90;;;;;;7405362;19;19937;-78
2023/05/17 07:36:56;;;;;;;0.00;0.00;;;9.60;99.90;;;;;;7405384;19;19920;-78
2023/05/17 07:39:25;;;;;;;0.00;0.00;;;9.50;99.90;;;;;;7403508;19;19990;-78
2023/05/17 07:41:53;;;;;;;6.72;0.90;;;9.60;99.90;;;;;;7405551;19;19946;-78
2023/05/17 07:44:23;;;;;;;0.00;0.00;;;9.70;99.90;;;;;;7408186;19;19978;-78
2023/05/17 07:46:52;;;;;;;0.00;0.00;;;9.70;99.90;;;;;;7406843;19;19925;-78
2023/05/17 07:49:21;;;;;;;0.00;0.00;;;9.50;99.90;;;;;;7407715;19;19974;-79
2023/05/17 07:51:54;;;;;;;0.00;0.00;;;9.50;99.90;;;;;;7408420;19;19924;-79
2023/05/17 07:54:27;;;;;;;0.17;0.17;;;9.80;99.90;;;;;;7405521;19;19926;-78
2023/05/17 07:56:56;;;;;;;0.00;0.00;;;9.70;99.90;;;;;;7407806;19;19918;-78
2023/05/17 07:59:26;;;;;;;0.10;0.10;;;9.80;99.90;;;;;;7403173;19;19913;-79
2023/05/17 08:01:55;;;;;;;0.00;0.00;;;9.80;99.90;;;;;;7403432;19;19925;-79
2023/05/17 08:04:25;;;;;;;0.00;0.00;;;9.60;99.90;;;;;;7404814;19;20015;-79
2023/05/17 08:06:56;;;;;;;0.00;0.00;;;9.70;99.90;;;;;;7406396;19;19921;-77
2023/05/17 08:09:25;;;;;;;0.00;0.00;;;9.60;99.90;;;;;;7405757;19;19922;-77
2023/05/17 08:11:54;;;;;;;0.00;0.00;;;9.60;99.90;;;;;;7406294;19;19923;-78
2023/05/17 08:14:25;;;;;;;0.00;0.00;;;9.70;99.90;;;;;;7405993;19;19983;-78
2023/05/17 08:16:54;;;;;;;0.00;0.00;;;9.80;99.90;;;;;;7404753;19;19922;-78
2023/05/17 08:19:23;;;;;;;0.00;0.00;;;9.90;99.90;;;;;;7407176;19;19915;-79
2023/05/17 08:21:52;;;;;;;0.00;0.00;;;10.00;99.90;;;;;;7417586;19;19919;-79
2023/05/17 08:24:24;;;;;;;0.00;0.00;;;10.20;99.90;;;;;;7415828;19;20006;-78
2023/05/17 08:26:53;;;;;;;0.00;0.00;;;10.40;99.90;;;;;;7404966;19;19935;-79
2023/05/17 08:29:22;;;;;;;0.00;0.00;;;10.40;99.90;;;;;;7404245;19;19932;-79
2023/05/17 08:31:51;;;;;;;0.77;0.73;;;10.40;99.90;;;;;;7405184;19;19907;-80
2023/05/17 08:34:20;;;;;;;0.90;0.90;;;10.30;99.90;;;;;;7404119;19;19922;-79
2023/05/17 08:36:49;;;;;;;0.00;0.00;;;10.50;99.90;;;;;;7406625;19;19935;-79
2023/05/17 08:39:19;;;;;;;0.00;0.00;;;10.50;99.90;;;;;;7402528;19;20270;-79
2023/05/17 08:41:52;;;;;;;0.00;0.00;;;10.70;99.90;;;;;;7404588;19;19933;-79
2023/05/17 08:44:22;;;;;;;0.00;0.00;;;10.60;99.90;;;;;;7405030;19;20388;-80
2023/05/17 08:46:53;;;;;;;0.00;0.00;;;10.50;99.90;;;;;;7406137;19;19922;-80
2023/05/17 08:49:26;;;;;;;0.52;0.52;;;10.40;99.90;;;;;;7404191;19;19922;-79
2023/05/17 08:51:56;;;;;;;0.00;0.00;;;10.30;99.90;;;;;;7404134;19;19938;-79
2023/05/17 08:54:25;;;;;;;0.00;0.00;;;10.30;99.90;;;;;;7403489;19;19911;-79
2023/05/17 08:57:00;;;;;;;0.10;0.10;;;10.30;99.90;;;;;;7403608;19;19924;-79
2023/05/17 08:59:32;;;;;;;0.00;0.00;;;10.20;99.90;;;;;;7402248;19;19966;-79
2023/05/17 09:02:02;;;;;;;0.00;0.00;;;10.20;99.90;;;;;;7403550;19;20281;-80
2023/05/17 09:04:32;;;;;;;6.70;1.08;;;10.20;99.90;;;;;;7402675;19;19918;-79
2023/05/17 09:07:00;;;;;;;0.00;0.00;;;10.10;99.90;;;;;;7403428;19;19919;-77
2023/05/17 09:09:30;;;;;;;0.20;0.20;;;10.20;99.90;;;;;;7403792;19;19919;-79
2023/05/17 09:12:03;;;;;;;0.00;0.00;;;10.20;99.90;;;;;;7403148;19;20478;-78
2023/05/17 09:14:36;;;;;;;0.00;0.00;;;10.20;99.90;;;;;;7403327;19;19935;-78
2023/05/17 09:17:05;;;;;;;0.00;0.00;;;10.20;99.90;;;;;;7402599;19;20365;-77
2023/05/17 09:19:34;;;;;;;0.00;0.00;;;10.20;99.90;;;;;;7405363;19;19923;-78
2023/05/17 09:22:04;;;;;;;0.10;0.10;;;10.00;99.90;;;;;;7402284;19;19985;-79
2023/05/17 09:24:33;;;;;;;0.00;0.00;;;10.10;99.90;;;;;;7406789;19;19930;-79
2023/05/17 09:27:08;;;;;;;0.00;0.00;;;10.20;99.90;;;;;;7402966;19;19922;-79
2023/05/17 09:29:37;;;;;;;0.38;0.38;;;10.30;99.90;;;;;;7401798;19;19919;-79
2023/05/17 09:32:15;;;;;;;0.00;0.00;;;10.30;99.90;;;;;;7405970;19;19943;-78
2023/05/17 09:34:47;;;;;;;0.00;0.00;;;10.80;99.90;;;;;;7402403;19;19918;-79
2023/05/17 09:37:16;;;;;;;;;;;10.70;99.90;;;;;;7402946;19;20012;-79
2023/05/17 09:39:46;;;;;;;0.00;0.00;;;10.50;99.90;;;;;;7410261;19;19937;-78
2023/05/17 09:42:18;;;;;;;0.52;0.52;;;10.60;99.90;;;;;;7406677;19;19951;-78
2023/05/17 09:44:53;;;;;;;0.00;0.00;;;10.40;99.90;;;;;;7403676;19;19991;-78
2023/05/17 09:47:29;;;;;;;0.00;0.00;;;10.40;99.90;;;;;;7401315;19;19919;-77
2023/05/17 09:50:01;;;;;;;0.00;0.00;;;10.40;99.90;;;;;;7401932;19;19919;-78
2023/05/17 09:52:30;;;;;;;0.00;0.00;;;10.50;99.90;;;;;;7404431;19;19984;-79
2023/05/17 09:55:00;;;;;;;0.00;0.00;;;10.50;99.90;;;;;;7403016;19;20261;-78
2023/05/17 09:57:40;;;;;;;0.00;0.00;;;10.60;99.90;;;;;;7401797;19;20297;-78
2023/05/17 10:00:12;;;;;;;0.00;0.00;;;10.40;99.90;;;;;;7403835;19;19964;-76
2023/05/17 10:02:42;;;;;;;0.00;0.00;;;10.40;99.90;;;;;;7408923;19;19918;-78
2023/05/17 10:05:14;;;;;;;0.00;0.00;;;10.50;99.90;;;;;;7412138;19;19920;-77
2023/05/17 10:07:43;;;;;;;0.32;0.32;;;10.70;99.90;;;;;;7401260;19;20278;-77
2023/05/17 10:10:13;;;;;;;0.00;0.00;;;10.60;99.90;;;;;;7399642;19;19929;-78
2023/05/17 10:12:46;;;;;;;0.00;0.00;;;10.70;99.90;;;;;;7401749;19;19943;-80
2023/05/17 10:15:17;;;;;;;0.00;0.00;;;10.80;99.90;;;;;;7403125;19;20002;-75
2023/05/17 10:17:47;;;;;;;3.20;0.85;;;11.00;99.90;;;;;;7418091;19;19951;-78
2023/05/17 10:20:18;;;;;;;0.00;0.00;;;11.00;99.90;;;;;;7412919;19;19923;-82
2023/05/17 10:22:48;;;;;;;0.00;0.00;;;11.20;99.90;;;;;;7413771;19;19918;-78
2023/05/17 10:25:17;;;;;;;0.00;0.00;;;11.20;99.90;;;;;;7403338;19;19983;-85
2023/05/17 10:27:51;;;;;;;0.10;0.10;;;11.40;99.90;;;;;;7403319;19;19919;-83
2023/05/17 10:30:21;;;;;;;0.00;0.00;;;11.50;99.90;;;;;;7404104;19;19989;-83
2023/05/17 10:32:51;;;;;;;0.00;0.00;;;11.50;99.90;;;;;;7401584;19;19918;-83
2023/05/17 10:35:21;;;;;;;0.00;0.00;;;11.60;99.90;;;;;;7400613;19;19914;-83
2023/05/17 10:37:50;;;;;;;0.00;0.00;;;11.70;99.90;;;;;;7401083;19;19947;-83
2023/05/17 10:40:21;;;;;;;0.00;0.00;;;11.80;99.90;;;;;;7399623;19;19952;-83
2023/05/17 10:42:56;;;;;;;0.00;0.00;;;11.80;99.90;;;;;;7401036;19;19922;-82
2023/05/17 10:45:27;;;;;;;0.17;0.13;;;11.90;99.90;;;;;;7405286;19;19938;-82
2023/05/17 10:47:56;;;;;;;0.00;0.00;;;11.80;99.90;;;;;;7412601;19;19935;-80
2023/05/17 10:50:27;;;;;;;0.00;0.00;;;11.90;99.90;;;;;;7415401;19;19931;-84
2023/05/17 10:52:56;;;;;;;4.57;0.32;;;12.00;99.90;;;;;;7408841;19;19926;-84
2023/05/17 10:55:38;;;;;;;0.00;0.00;;;11.80;99.90;;;;;;7412329;19;19919;-83
2023/05/17 10:58:21;;;;;;;0.10;0.10;;;11.90;99.90;;;;;;7408105;19;19922;-82
2023/05/17 11:00:53;;;;;;;0.00;0.00;;;11.80;99.90;;;;;;7408077;19;19918;-83
2023/05/17 11:03:27;;;;;;;0.00;0.00;;;11.50;99.90;;;;;;7406018;19;19914;-82
2023/05/17 11:06:16;;;;;;;0.00;0.00;;;11.50;99.90;;;;;;7407984;19;20259;-81
2023/05/17 11:08:48;;;;;;;;;;;11.60;99.90;;;;;;7410790;19;19991;-86
2023/05/17 11:11:20;;;;;;;0.00;0.00;;;11.70;99.90;;;;;;7411263;19;19923;-81
2023/05/17 11:13:54;;;;;;;0.10;0.10;;;11.70;99.90;;;;;;7406148;19;19915;-83
2023/05/17 11:16:24;;;;;;;0.00;0.00;;;11.50;99.90;;;;;;7412613;19;20604;-83
2023/05/17 11:18:54;;;;;;;0.00;0.00;;;11.70;99.90;;;;;;7406492;19;19919;-83
2023/05/17 11:21:26;;;;;;;0.00;0.00;;;11.80;99.90;;;;;;7404051;19;20357;-84
2023/05/17 11:23:57;;;;;;;0.00;0.00;;;11.90;99.90;;;;;;7407325;19;20252;-86
2023/05/17 11:26:35;;;;;;;0.00;0.00;;;11.60;99.90;;;;;;7409813;19;19918;-85
2023/05/17 11:29:09;;;;;;;;;;;11.70;99.90;;;;;;7407627;19;19982;-85
2023/05/17 11:31:39;;;;;;;0.00;0.00;;;11.40;99.90;;;;;;7412226;19;19923;-88
2023/05/17 11:34:08;;;;;;;0.75;0.75;;;11.40;99.90;;;;;;7411508;19;19927;-86
2023/05/17 11:36:51;;;;;;;0.00;0.00;;;11.10;99.90;;;;;;7407024;19;19939;-85
2023/05/17 11:39:23;;;;;;;0.00;0.00;;;11.30;99.90;;;;;;7408080;19;19940;-87
2023/05/17 11:41:54;;;;;;;0.00;0.00;;;11.20;99.90;;;;;;7407697;19;19926;-86
2023/05/17 11:44:33;;;;;;;0.00;0.00;;;11.20;99.90;;;;;;7408283;19;19974;-86
2023/05/17 11:47:04;;;;;;;0.00;0.00;;;11.40;99.90;;;;;;7407813;19;19948;-86
2023/05/17 11:49:34;;;;;;;0.00;0.00;;;11.60;99.90;;;;;;7409455;19;20270;-86
2023/05/17 11:52:04;;;;;;;0.52;0.08;;;11.80;99.90;;;;;;7410592;19;19926;-86
2023/05/17 11:54:34;;;;;;;0.00;0.00;;;11.80;99.90;;;;;;7415504;19;19911;-86
2023/05/17 11:57:04;;;;;;;0.13;0.13;;;12.10;99.90;;;;;;7439925;19;19946;-86
2023/05/17 11:59:41;;;;;;;0.00;0.00;;;12.20;99.90;;;;;;7417642;19;19982;-87
2023/05/17 12:02:11;;;;;;;0.00;0.00;;;12.30;99.90;;;;;;7411451;19;19918;-86
2023/05/17 12:04:41;;;;;;;0.00;0.00;;;12.60;99.90;;;;;;7409129;19;19914;-87
2023/05/17 12:07:11;;;;;;;0.00;0.00;;;12.70;99.90;;;;;;7407522;19;19926;-86
2023/05/17 12:09:41;;;;;;;0.00;0.00;;;12.80;99.90;;;;;;7414627;19;19910;-86
2023/05/17 12:12:10;;;;;;;0.00;0.00;;;13.10;99.90;;;;;;7420002;19;19921;-86
2023/05/17 12:14:47;;;;;;;0.00;0.00;;;13.20;99.90;;;;;;7417788;19;19981;-85
2023/05/17 12:17:26;;;;;;;0.00;0.00;;;13.20;99.90;;;;;;7407429;19;19926;-85
2023/05/17 12:19:55;;;;;;;0.00;0.00;;;13.20;99.90;;;;;;7408126;19;19922;-86
2023/05/17 12:22:24;;;;;;;0.00;0.00;;;13.20;99.90;;;;;;7404831;19;19922;-86
2023/05/17 12:24:53;;;;;;;0.00;0.00;;;13.10;99.90;;;;;;7407439;19;19986;-86
2023/05/17 12:27:28;;;;;;;0.00;0.00;;;13.20;99.90;;;;;;7408972;19;19994;-86
2023/05/17 12:29:59;;;;;;;0.00;0.00;;;13.00;99.90;;;;;;7411959;19;19923;-85
2023/05/17 12:32:28;;;;;;;0.05;0.05;;;13.00;99.90;;;;;;7415273;19;19911;-87
2023/05/17 12:34:57;;;;;;;0.20;0.20;;;12.80;99.90;;;;;;7409343;19;19930;-86
2023/05/17 12:37:26;;;;;;;2.20;1.20;;;12.80;99.90;;;;;;7408434;19;19918;-86
2023/05/17 12:39:57;;;;;;;0.00;0.00;;;12.90;99.90;;;;;;7404922;19;20347;-85
2023/05/17 12:42:26;;;;;;;0.00;0.00;;;13.00;99.90;;;;;;7410624;19;19914;-85
2023/05/17 12:44:55;;;;;;;0.00;0.00;;;13.00;99.90;;;;;;7404365;19;19921;-87
2023/05/17 12:47:27;;;;;;;0.00;0.00;;;12.90;99.90;;;;;;7405109;19;19970;-87
2023/05/17 12:49:57;;;;;;;0.60;0.60;;;12.60;99.90;;;;;;7404702;19;20478;-87
2023/05/17 12:52:26;;;;;;;0.30;0.30;;;12.70;99.90;;;;;;7404208;19;19928;-87
2023/05/17 12:54:55;;;;;;;0.63;0.55;;;12.70;99.90;;;;;;7405824;19;20291;-87
2023/05/17 12:57:24;;;;;;;0.00;0.00;;;12.80;99.90;;;;;;7405289;19;19910;-86
2023/05/17 12:59:54;;;;;;;0.50;0.45;;;12.90;99.90;;;;;;7404533;19;19974;-87
2023/05/17 13:02:27;;;;;;;0.00;0.00;;;13.30;99.90;;;;;;7408515;19;20321;-86
2023/05/17 13:04:56;;;;;;;0.00;0.00;;;13.70;99.90;;;;;;7432140;19;19915;-85
2023/05/17 13:07:26;;;;;;;0.05;0.05;;;13.60;99.90;;;;;;7416826;19;19918;-86
2023/05/17 13:09:55;;;;;;;0.00;0.00;;;13.60;99.90;;;;;;7409893;19;19922;-86